Igiugig, Alaska
Current Conditions -  °F | °C
As of 5:06 AM on Friday 24 Oct 2014 (Local Time) from PAIG Reporting Station
Haze Haze  
Wind Chill: 34°   Ceiling: 300
Heat Index: 34°   Visibility: 1.7mi
Dew Point: 34°   Wind: 0mph
Humidity: 100%   Direction: NA
Pressure: 29.78"   Gusts: NA
Location:  59.32°N, 155.89°W
Report Text: PAIG 241306Z AUTO 00000KT 1 3/4SM UP BR BKN003 OVC009 01/01 A2978 RMK AO2 TSNO CIG 003V006 P0000 $
Loading
Personal Weather Stations






























Interactive Weather Map
Tropical Storm Tracking
New forecast layout! Learn more

10-Day Weather Forecast

Advertisements
Track Severe Weather on mobile